createdAt,value
2022-10-30T00:01:23.263Z,98000.09
2022-10-30T00:03:51.311Z,97999.47
2022-10-30T00:06:20.455Z,97998.63
2022-10-30T00:08:48.586Z,97992.19
2022-10-30T00:11:16.619Z,97993.00
2022-10-30T00:13:45.098Z,98000.09
2022-10-30T00:16:13.264Z,97988.84
2022-10-30T00:18:43.340Z,98005.25
2022-10-30T00:21:15.556Z,97992.38
2022-10-30T00:23:52.031Z,97997.56
2022-10-30T00:26:22.999Z,97993.19
2022-10-30T00:28:52.909Z,97994.25
2022-10-30T00:31:21.077Z,97999.66
2022-10-30T00:33:54.682Z,97991.56
2022-10-30T00:36:23.486Z,97998.44
2022-10-30T00:38:51.685Z,98006.09
2022-10-30T00:41:24.567Z,98004.00
2022-10-30T00:43:53.060Z,98008.78
2022-10-30T00:46:41.134Z,98005.06
2022-10-30T00:49:20.016Z,97998.63
2022-10-30T00:51:54.965Z,98002.16
2022-10-30T00:54:23.860Z,98003.63
2022-10-30T00:56:53.770Z,97997.59
2022-10-30T00:59:30.847Z,97999.69
2022-10-30T01:02:01.433Z,98006.53
2022-10-30T01:04:33.111Z,98000.53
2022-10-30T01:07:11.033Z,97989.91
2022-10-30T01:09:40.818Z,97989.31
2022-10-30T01:12:09.497Z,97986.81
2022-10-30T01:14:48.360Z,97990.75
2022-10-30T01:17:20.546Z,97983.06
2022-10-30T01:19:57.550Z,97982.88
2022-10-30T01:23:15.871Z,97981.81
2022-10-30T01:26:39.854Z,97969.56
2022-10-30T01:29:33.532Z,97980.56
2022-10-30T01:32:27.995Z,97974.78
2022-10-30T01:35:08.447Z,97976.22
2022-10-30T01:37:58.300Z,97969.38
2022-10-30T01:40:27.054Z,97961.69
2022-10-30T01:42:58.591Z,97962.53
2022-10-30T01:45:48.045Z,97952.50
2022-10-30T01:48:53.105Z,97953.09
2022-10-30T01:52:03.521Z,97957.47
2022-10-30T01:54:56.098Z,97961.25
2022-10-30T01:57:50.346Z,97955.41
2022-10-30T02:00:20.581Z,97946.66
2022-10-30T02:02:51.649Z,97948.94
2022-10-30T02:05:44.209Z,97956.34
2022-10-30T02:08:12.532Z,97956.56
2022-10-30T02:10:44.714Z,97950.56
2022-10-30T02:13:13.138Z,97939.75
2022-10-30T02:15:44.006Z,97942.22
2022-10-30T02:18:12.205Z,97936.38
2022-10-30T02:20:41.360Z,97932.41
2022-10-30T02:23:13.629Z,97938.22
2022-10-30T02:25:41.833Z,97927.41
2022-10-30T02:28:11.235Z,97928.03
2022-10-30T02:30:44.229Z,97928.22
2022-10-30T02:33:12.585Z,97925.94
2022-10-30T02:35:40.660Z,97926.78
2022-10-30T02:38:09.228Z,97928.84
2022-10-30T02:40:37.313Z,97938.00
2022-10-30T02:43:05.368Z,97938.22
2022-10-30T02:45:33.600Z,97933.25
2022-10-30T02:48:02.285Z,97939.09
2022-10-30T02:50:31.684Z,97938.06
2022-10-30T02:53:00.380Z,97931.84
2022-10-30T02:55:29.258Z,97935.41
2022-10-30T02:57:57.485Z,97932.97
2022-10-30T03:00:26.024Z,97937.72
2022-10-30T03:02:57.737Z,97932.34
2022-10-30T03:05:25.925Z,97936.72
2022-10-30T03:07:55.504Z,97943.63
2022-10-30T03:10:24.115Z,97945.28
2022-10-30T03:12:53.547Z,97947.16
2022-10-30T03:15:22.478Z,97945.72
2022-10-30T03:17:52.973Z,97936.41
2022-10-30T03:20:21.517Z,97942.41
2022-10-30T03:22:49.716Z,97949.66
2022-10-30T03:25:23.885Z,97940.34
2022-10-30T03:27:56.128Z,97943.66
2022-10-30T03:30:24.493Z,97935.72
2022-10-30T03:32:52.592Z,97936.56
2022-10-30T03:35:21.739Z,97935.09
2022-10-30T03:37:49.940Z,97943.78
2022-10-30T03:40:19.609Z,97944.22
2022-10-30T03:42:47.787Z,97946.06
2022-10-30T03:45:16.248Z,97945.25
2022-10-30T03:47:44.310Z,97948.75
2022-10-30T03:50:12.423Z,97947.94
2022-10-30T03:52:40.476Z,97952.09
2022-10-30T03:55:09.281Z,97951.03
2022-10-30T03:57:40.961Z,97959.31
2022-10-30T04:00:18.642Z,97955.81
2022-10-30T04:03:01.142Z,97954.13
2022-10-30T04:05:31.875Z,97961.78
2022-10-30T04:08:07.731Z,97956.41
2022-10-30T04:10:38.158Z,97959.50
2022-10-30T04:13:12.926Z,97961.78
2022-10-30T04:15:56.344Z,97965.91
2022-10-30T04:18:27.083Z,97957.59
2022-10-30T04:20:56.225Z,97953.03
2022-10-30T04:23:24.326Z,97951.56
2022-10-30T04:25:52.526Z,97953.22
2022-10-30T04:28:21.699Z,97959.22
2022-10-30T04:30:49.873Z,97954.28
2022-10-30T04:33:19.036Z,97958.66
2022-10-30T04:35:47.237Z,97951.19
2022-10-30T04:38:21.458Z,97955.72
2022-10-30T04:40:50.002Z,97955.94
2022-10-30T04:43:19.188Z,97951.38
2022-10-30T04:45:50.968Z,97957.19
2022-10-30T04:48:19.770Z,97961.53
2022-10-30T04:50:49.059Z,97952.63
2022-10-30T04:53:26.020Z,97947.44
2022-10-30T04:56:01.058Z,97940.81
2022-10-30T04:58:29.742Z,97942.66
2022-10-30T05:01:09.378Z,97940.38
2022-10-30T05:03:38.656Z,97938.72
2022-10-30T05:06:30.470Z,97944.75
2022-10-30T05:08:59.296Z,97947.00
2022-10-30T05:11:39.472Z,97943.28
2022-10-30T05:14:09.403Z,97941.63
2022-10-30T05:16:38.898Z,97942.03
2022-10-30T05:19:07.588Z,97938.94
2022-10-30T05:21:36.483Z,97935.41
2022-10-30T05:24:05.911Z,97940.41
2022-10-30T05:26:41.920Z,97931.91
2022-10-30T05:29:10.117Z,97929.44
2022-10-30T05:31:40.574Z,97923.38
2022-10-30T05:34:17.796Z,97922.56
2022-10-30T05:36:48.642Z,97923.63
2022-10-30T05:39:17.447Z,97922.56
2022-10-30T05:41:49.102Z,97926.09
2022-10-30T05:44:29.209Z,97931.47
2022-10-30T05:47:03.150Z,97925.69
2022-10-30T05:49:34.500Z,97928.16
2022-10-30T05:52:05.556Z,97925.03
2022-10-30T05:54:34.116Z,97919.19
2022-10-30T05:57:08.918Z,97926.66
2022-10-30T05:59:40.030Z,97929.53
2022-10-30T06:02:09.032Z,97923.75
2022-10-30T06:04:37.844Z,97924.16
2022-10-30T06:07:11.455Z,97923.75
2022-10-30T06:09:39.670Z,97928.72
2022-10-30T06:12:27.894Z,97932.47
2022-10-30T06:15:06.435Z,97933.94
2022-10-30T06:17:34.498Z,97930.41
2022-10-30T06:20:17.014Z,97925.03
2022-10-30T06:22:57.783Z,97930.41
2022-10-30T06:25:37.741Z,97928.13
2022-10-30T06:28:31.535Z,97927.72
2022-10-30T06:30:59.859Z,97930.16
2022-10-30T06:33:28.304Z,97932.22
2022-10-30T06:35:56.744Z,97932.22
2022-10-30T06:38:24.942Z,97937.41
2022-10-30T06:40:54.801Z,97945.31
2022-10-30T06:43:41.635Z,97945.31
2022-10-30T06:46:32.431Z,97950.69
2022-10-30T06:49:02.128Z,97947.38
2022-10-30T06:51:32.159Z,97944.25
2022-10-30T06:54:01.430Z,97952.31
2022-10-30T06:56:51.953Z,97951.28
2022-10-30T06:59:50.265Z,97944.69
2022-10-30T07:02:38.503Z,97947.16
2022-10-30T07:05:10.677Z,97945.94
2022-10-30T07:07:40.547Z,97949.44
2022-10-30T07:10:10.189Z,97959.81
2022-10-30T07:13:04.312Z,97956.72
2022-10-30T07:15:45.266Z,97961.09
2022-10-30T07:18:22.920Z,97961.28
2022-10-30T07:20:57.027Z,97958.41
2022-10-30T07:23:25.802Z,97964.41
2022-10-30T07:26:03.732Z,97962.16
2022-10-30T07:28:43.954Z,97966.72
2022-10-30T07:31:34.818Z,97972.53
2022-10-30T07:34:32.293Z,97967.38
2022-10-30T07:37:18.977Z,97959.09
2022-10-30T07:39:59.079Z,97956.00
2022-10-30T07:42:46.226Z,97965.97
2022-10-30T07:45:34.365Z,97964.31
2022-10-30T07:48:40.960Z,97973.84
2022-10-30T07:51:20.214Z,97967.44
2022-10-30T07:53:48.395Z,97966.41
2022-10-30T07:56:16.954Z,97964.38
2022-10-30T07:58:54.162Z,97968.56
2022-10-30T08:01:38.596Z,97969.19
2022-10-30T08:04:28.008Z,97974.16
2022-10-30T08:07:01.244Z,97974.38
2022-10-30T08:09:30.786Z,97972.09
2022-10-30T08:11:58.852Z,97981.22
2022-10-30T08:14:27.200Z,97980.59
2022-10-30T08:16:57.295Z,97975.63
2022-10-30T08:19:25.524Z,97980.38
2022-10-30T08:21:59.190Z,97978.09
2022-10-30T08:24:28.525Z,97971.84
2022-10-30T08:26:59.945Z,97980.38
2022-10-30T08:29:28.886Z,97980.78
2022-10-30T08:31:57.910Z,97987.41
2022-10-30T08:34:27.678Z,97975.16
2022-10-30T08:36:57.694Z,97969.53
2022-10-30T08:39:26.020Z,97970.78
2022-10-30T08:42:17.479Z,97977.81
2022-10-30T08:44:46.282Z,97973.88
2022-10-30T08:47:26.124Z,97969.72
2022-10-30T08:49:54.348Z,97967.44
2022-10-30T08:52:26.250Z,97968.44
2022-10-30T08:54:57.954Z,97972.38
2022-10-30T08:57:28.416Z,97976.97
2022-10-30T08:59:58.445Z,97982.53
2022-10-30T09:02:55.855Z,97977.94
2022-10-30T09:05:53.672Z,97978.13
2022-10-30T09:08:22.065Z,97980.84
2022-10-30T09:11:04.201Z,97969.59
2022-10-30T09:13:33.501Z,97978.09
2022-10-30T09:16:04.076Z,97972.28
2022-10-30T09:18:35.034Z,97978.66
2022-10-30T09:21:05.066Z,97986.97
2022-10-30T09:23:39.140Z,97979.47
2022-10-30T09:26:30.003Z,97985.22
2022-10-30T09:29:18.387Z,97978.38
2022-10-30T09:32:15.488Z,97983.13
2022-10-30T09:34:53.543Z,97991.84
2022-10-30T09:37:27.621Z,97980.63
2022-10-30T09:40:00.618Z,97983.28
2022-10-30T09:42:44.969Z,97980.16
2022-10-30T09:45:42.640Z,97985.72
2022-10-30T09:48:23.684Z,97981.78
2022-10-30T09:55:41.798Z,97988.13
2022-10-30T09:58:34.353Z,97987.91
2022-10-30T10:01:29.474Z,97995.38
2022-10-30T10:04:28.739Z,97994.72
2022-10-30T10:07:30.523Z,97998.78
2022-10-30T10:10:53.445Z,97993.94
2022-10-30T10:13:38.591Z,97994.09
2022-10-30T10:16:21.314Z,97992.16
2022-10-30T10:19:07.974Z,97989.84
2022-10-30T10:22:08.218Z,97994.16
2022-10-30T10:24:44.585Z,97990.38
2022-10-30T10:27:38.823Z,97979.91
2022-10-30T10:30:20.492Z,97989.63
2022-10-30T10:33:10.302Z,97986.25
2022-10-30T10:36:22.031Z,97984.75
2022-10-30T10:39:07.752Z,97988.00
2022-10-30T10:42:03.198Z,97980.00
2022-10-30T10:44:39.939Z,97982.66
2022-10-30T10:47:44.843Z,97987.38
2022-10-30T10:50:26.493Z,97976.47
2022-10-30T10:53:09.824Z,97987.22
2022-10-30T10:55:40.050Z,97972.97
2022-10-30T10:58:23.390Z,97982.09
2022-10-30T11:00:53.015Z,97977.69
2022-10-30T11:03:35.160Z,97977.00
2022-10-30T11:06:27.465Z,97975.88
2022-10-30T11:09:14.045Z,97971.16
2022-10-30T11:11:45.270Z,97971.75
2022-10-30T11:14:31.548Z,97966.25
2022-10-30T11:17:18.371Z,97963.66
2022-10-30T11:19:51.813Z,97959.69
2022-10-30T11:22:43.221Z,97963.34
2022-10-30T11:25:26.918Z,97962.19
2022-10-30T11:28:02.304Z,97956.88
2022-10-30T11:30:30.843Z,97961.41
2022-10-30T11:33:19.931Z,97962.34
2022-10-30T11:35:48.035Z,97963.88
2022-10-30T11:38:22.342Z,97955.91
2022-10-30T11:40:52.973Z,97950.84
2022-10-30T11:43:25.700Z,97953.69
2022-10-30T11:45:54.625Z,97950.63
2022-10-30T11:48:31.698Z,97957.00
2022-10-30T11:51:02.365Z,97947.91
2022-10-30T11:53:49.247Z,97951.66
2022-10-30T11:56:21.897Z,97948.25
2022-10-30T11:59:03.535Z,97947.88
2022-10-30T12:01:36.328Z,97953.69
2022-10-30T12:04:21.639Z,97950.81
2022-10-30T12:07:26.440Z,97940.31
2022-10-30T12:09:54.550Z,97937.47
2022-10-30T12:12:29.564Z,97937.25
2022-10-30T12:15:14.220Z,97944.69
2022-10-30T12:18:02.219Z,97938.78
2022-10-30T12:20:30.773Z,97938.31
2022-10-30T12:22:59.201Z,97936.16
2022-10-30T12:25:31.144Z,97936.75
2022-10-30T12:28:18.187Z,97935.19
2022-10-30T12:31:23.709Z,97932.00
2022-10-30T12:34:18.435Z,97927.75
2022-10-30T12:36:56.835Z,97927.25
2022-10-30T12:39:38.351Z,97924.06
2022-10-30T12:42:14.836Z,97929.03
2022-10-30T12:44:53.146Z,97924.50
2022-10-30T12:47:34.286Z,97917.84
2022-10-30T12:50:16.036Z,97922.78
2022-10-30T12:53:27.206Z,97922.97
2022-10-30T12:56:26.128Z,97914.44
2022-10-30T12:59:53.870Z,97912.97
2022-10-30T13:02:40.445Z,97910.94
2022-10-30T13:05:28.536Z,97918.63
2022-10-30T13:08:51.019Z,97911.38
2022-10-30T13:11:36.947Z,97913.09
2022-10-30T13:14:16.464Z,97903.84
2022-10-30T13:16:44.779Z,97905.28
2022-10-30T13:19:14.071Z,97907.72
2022-10-30T13:21:53.154Z,97898.84
2022-10-30T13:24:31.700Z,97902.47
2022-10-30T13:27:07.707Z,97901.13
2022-10-30T13:29:54.739Z,97899.81
2022-10-30T13:32:41.369Z,97903.09
2022-10-30T13:35:26.286Z,97901.56
2022-10-30T13:38:19.950Z,97899.41
2022-10-30T13:41:00.752Z,97897.84
2022-10-30T13:44:32.436Z,97897.91
2022-10-30T13:47:59.868Z,97903.91
2022-10-30T13:50:40.242Z,97900.72
2022-10-30T13:53:19.708Z,97899.91
2022-10-30T13:55:49.829Z,97901.56
2022-10-30T13:58:29.219Z,97902.69
2022-10-30T14:01:31.329Z,97895.09
2022-10-30T14:04:19.619Z,97898.72
2022-10-30T14:07:10.842Z,97896.53
2022-10-30T14:10:13.799Z,97906.59
2022-10-30T14:12:55.388Z,97904.19
2022-10-30T14:15:42.548Z,97893.78
2022-10-30T14:18:13.290Z,97904.13
2022-10-30T14:20:55.852Z,97901.88
2022-10-30T14:23:35.722Z,97896.44
2022-10-30T14:26:04.137Z,97896.94
2022-10-30T14:28:38.239Z,97902.66
2022-10-30T14:31:18.661Z,97900.13
2022-10-30T14:33:55.041Z,97904.75
2022-10-30T14:36:33.676Z,97897.91
2022-10-30T14:39:14.845Z,97902.78
2022-10-30T14:42:07.054Z,97898.91
2022-10-30T14:44:59.374Z,97901.28
2022-10-30T14:47:27.330Z,97892.81
2022-10-30T14:50:01.302Z,97900.91
2022-10-30T14:52:43.163Z,97898.66
2022-10-30T14:55:32.281Z,97904.84
2022-10-30T14:58:03.338Z,97906.44
2022-10-30T15:00:35.034Z,97904.69
2022-10-30T15:03:36.597Z,97906.84
2022-10-30T15:06:42.458Z,97907.31
2022-10-30T15:09:29.159Z,97909.72
2022-10-30T15:12:24.526Z,97906.81
2022-10-30T15:15:03.123Z,97913.81
2022-10-30T15:17:39.588Z,97914.31
2022-10-30T15:20:18.375Z,97910.44
2022-10-30T15:22:51.834Z,97911.97
2022-10-30T15:25:23.314Z,97910.81
2022-10-30T15:27:57.530Z,97913.41
2022-10-30T15:30:27.625Z,97911.19
2022-10-30T15:32:55.931Z,97916.53
2022-10-30T15:35:30.033Z,97912.88
2022-10-30T15:38:10.227Z,97912.78
2022-10-30T15:40:39.035Z,97908.81
2022-10-30T15:43:12.519Z,97914.38
2022-10-30T15:45:47.440Z,97909.63
2022-10-30T15:48:33.019Z,97909.09
2022-10-30T15:51:06.267Z,97907.47
2022-10-30T15:53:45.503Z,97915.16
2022-10-30T15:57:21.507Z,97909.72
2022-10-30T15:59:38.790Z,97913.38
2022-10-30T16:02:22.959Z,97914.00
2022-10-30T16:04:51.395Z,97923.59
2022-10-30T16:07:24.637Z,97907.84
2022-10-30T16:09:55.985Z,97910.47
2022-10-30T16:12:32.747Z,97917.22
2022-10-30T16:15:24.644Z,97916.84
2022-10-30T16:18:27.795Z,97915.66
2022-10-30T16:21:03.070Z,97916.34
2022-10-30T16:23:37.278Z,97914.56
2022-10-30T16:26:05.846Z,97918.59
2022-10-30T16:28:36.079Z,97919.84
2022-10-30T16:31:08.349Z,97912.56
2022-10-30T16:33:37.532Z,97920.13
2022-10-30T16:36:07.504Z,97920.78
2022-10-30T16:38:37.768Z,97917.84
2022-10-30T16:41:12.315Z,97927.97
2022-10-30T16:44:04.777Z,97930.44
2022-10-30T16:46:53.356Z,97930.75
2022-10-30T16:49:30.464Z,97942.41
2022-10-30T16:52:07.761Z,97937.31
2022-10-30T16:54:42.106Z,97936.78
2022-10-30T16:57:27.805Z,97936.25
2022-10-30T16:59:57.832Z,97937.63
2022-10-30T17:02:35.205Z,97934.38
2022-10-30T17:05:35.255Z,97943.88
2022-10-30T17:08:39.960Z,97941.63
2022-10-30T17:11:18.850Z,97945.25
2022-10-30T17:13:59.042Z,97940.56
2022-10-30T17:16:31.666Z,97947.31
2022-10-30T17:19:31.683Z,97949.53
2022-10-30T17:22:04.431Z,97957.25
2022-10-30T17:24:36.018Z,97962.69
2022-10-30T17:27:29.300Z,97961.09
2022-10-30T17:29:57.479Z,97973.44
2022-10-30T17:32:29.283Z,97977.41
2022-10-30T17:35:18.268Z,97972.44
2022-10-30T17:37:46.688Z,97976.63
2022-10-30T17:40:15.752Z,97982.13
2022-10-30T17:42:43.955Z,97979.44
2022-10-30T17:45:15.758Z,97976.81
2022-10-30T17:47:43.844Z,97978.31
2022-10-30T17:50:12.403Z,97978.94
2022-10-30T17:52:40.460Z,97982.09
2022-10-30T17:55:25.823Z,97994.63
2022-10-30T17:57:53.907Z,97994.22
2022-10-30T18:00:22.013Z,97994.28
2022-10-30T18:02:50.191Z,97990.38
2022-10-30T18:05:22.713Z,97993.28
2022-10-30T18:10:23.819Z,98000.34
2022-10-30T18:12:51.880Z,97999.31
2022-10-30T18:15:46.366Z,98005.53
2022-10-30T18:18:14.470Z,98009.91
2022-10-30T18:20:42.676Z,98011.59
2022-10-30T18:26:28.013Z,98012.66
2022-10-30T18:28:56.115Z,98009.75
2022-10-30T18:31:25.024Z,98005.22
2022-10-30T18:33:53.341Z,98008.59
2022-10-30T18:36:24.783Z,98002.97
2022-10-30T18:38:54.690Z,97998.84
2022-10-30T18:41:34.630Z,98009.41
2022-10-30T18:44:03.554Z,98006.34
2022-10-30T18:46:33.678Z,98004.06
2022-10-30T18:49:01.913Z,98000.75
2022-10-30T18:51:29.987Z,98004.91
2022-10-30T18:53:58.401Z,98007.22
2022-10-30T18:56:29.969Z,98002.47
2022-10-30T18:59:02.294Z,98004.53
2022-10-30T19:01:32.480Z,98005.78
2022-10-30T19:04:02.454Z,98006.00
2022-10-30T19:06:31.089Z,98013.09
2022-10-30T19:08:59.258Z,98013.94
2022-10-30T19:11:30.220Z,98021.00
2022-10-30T19:14:00.247Z,98014.78
2022-10-30T19:16:29.163Z,98020.81
2022-10-30T19:18:57.478Z,98018.53
2022-10-30T19:21:26.530Z,98018.94
2022-10-30T19:24:06.952Z,98020.59
2022-10-30T19:26:35.177Z,98019.56
2022-10-30T19:29:03.255Z,98009.41
2022-10-30T19:31:31.324Z,98016.28
2022-10-30T19:33:59.662Z,98021.69
2022-10-30T19:36:37.604Z,98043.06
2022-10-30T19:39:14.437Z,98041.41
2022-10-30T19:41:42.746Z,98045.38
2022-10-30T19:44:11.198Z,98044.53
2022-10-30T19:46:39.254Z,98048.69
2022-10-30T19:49:25.246Z,98053.44
2022-10-30T19:51:53.660Z,98055.72
2022-10-30T19:54:21.764Z,98056.34
2022-10-30T19:56:49.829Z,98055.31
2022-10-30T19:59:18.026Z,98055.13
2022-10-30T20:01:46.186Z,98064.03
2022-10-30T20:04:14.451Z,98063.44
2022-10-30T20:06:42.633Z,98059.47
2022-10-30T20:09:13.497Z,98065.28
2022-10-30T20:11:41.557Z,98060.09
2022-10-30T20:14:09.663Z,98063.63
2022-10-30T20:16:37.724Z,98055.31
2022-10-30T20:19:29.354Z,98052.41
2022-10-30T20:21:57.416Z,98052.41
2022-10-30T20:24:25.732Z,98066.13
2022-10-30T20:26:56.595Z,98064.47
2022-10-30T20:29:25.396Z,98067.38
2022-10-30T20:31:53.578Z,98062.59
2022-10-30T20:34:21.686Z,98069.25
2022-10-30T20:36:49.745Z,98061.75
2022-10-30T20:39:17.851Z,98063.84
2022-10-30T20:41:46.026Z,98067.59
2022-10-30T20:44:14.144Z,98069.63
2022-10-30T20:46:42.312Z,98066.94
2022-10-30T20:49:17.229Z,98077.09
2022-10-30T20:51:47.751Z,98067.56
2022-10-30T20:54:15.829Z,98071.91
2022-10-30T20:56:43.910Z,98071.06
2022-10-30T20:59:11.989Z,98060.06
2022-10-30T21:01:40.196Z,98075.00
2022-10-30T21:04:08.391Z,98060.28
2022-10-30T21:06:36.452Z,98067.97
2022-10-30T21:09:04.673Z,98063.59
2022-10-30T21:11:32.881Z,98065.88
2022-10-30T21:14:00.973Z,98071.47
2022-10-30T21:16:29.027Z,98070.00
2022-10-30T21:18:57.123Z,98074.16
2022-10-30T21:21:26.041Z,98069.53
2022-10-30T21:23:55.334Z,98073.06
2022-10-30T21:26:24.890Z,98073.25
2022-10-30T21:28:53.092Z,98071.16
2022-10-30T21:31:21.477Z,98069.28
2022-10-30T21:33:49.578Z,98071.53
2022-10-30T21:36:20.050Z,98070.09
2022-10-30T21:38:48.602Z,98066.75
2022-10-30T21:41:20.802Z,98067.38
2022-10-30T21:43:55.088Z,98069.22
2022-10-30T21:46:27.371Z,98060.09
2022-10-30T21:48:56.293Z,98067.97
2022-10-30T21:51:26.896Z,98080.22
2022-10-30T21:53:56.556Z,98073.56
2022-10-30T21:56:29.091Z,98067.34
2022-10-30T21:59:00.436Z,98075.84
2022-10-30T22:01:31.858Z,98069.19
2022-10-30T22:04:02.088Z,98079.09
2022-10-30T22:06:31.351Z,98084.91
2022-10-30T22:09:00.298Z,98072.25
2022-10-30T22:11:29.099Z,98064.75
2022-10-30T22:13:59.826Z,98068.06
2022-10-30T22:16:30.283Z,98069.47
2022-10-30T22:18:59.323Z,98075.06
2022-10-30T22:21:27.536Z,98064.88
2022-10-30T22:23:55.630Z,98064.03
2022-10-30T22:26:24.650Z,98073.16
2022-10-30T22:28:59.829Z,98068.59
2022-10-30T22:31:30.056Z,98072.53
2022-10-30T22:34:01.174Z,98066.72
2022-10-30T22:36:32.347Z,98074.34
2022-10-30T22:39:04.290Z,98074.94
2022-10-30T22:41:36.495Z,98076.78
2022-10-30T22:44:08.825Z,98072.66
2022-10-30T22:46:37.510Z,98073.41
2022-10-30T22:49:06.312Z,98075.47
2022-10-30T22:51:37.280Z,98066.34
2022-10-30T22:54:12.461Z,98071.09
2022-10-30T22:56:41.961Z,98076.88
2022-10-30T22:59:14.609Z,98075.22
2022-10-30T23:01:43.444Z,98068.75
2022-10-30T23:04:14.162Z,98075.56
2022-10-30T23:06:43.191Z,98074.28
2022-10-30T23:09:19.412Z,98075.09
2022-10-30T23:11:47.614Z,98080.31
2022-10-30T23:14:15.960Z,98078.00
2022-10-30T23:16:44.037Z,98075.53
2022-10-30T23:19:12.122Z,98078.59
2022-10-30T23:21:40.186Z,98073.81
2022-10-30T23:24:08.786Z,98075.41
2022-10-30T23:26:37.790Z,98073.09
2022-10-30T23:29:06.011Z,98074.31
2022-10-30T23:31:41.154Z,98076.81
2022-10-30T23:34:16.598Z,98071.44
2022-10-30T23:36:45.001Z,98072.66
2022-10-30T23:39:18.146Z,98066.63
2022-10-30T23:41:46.342Z,98067.84
2022-10-30T23:44:16.659Z,98070.72
2022-10-30T23:46:45.010Z,98062.84
2022-10-30T23:49:13.110Z,98068.22
2022-10-30T23:51:41.174Z,98072.53
2022-10-30T23:54:09.523Z,98070.88
2022-10-30T23:56:37.579Z,98067.53
2022-10-30T23:59:05.681Z,98071.25
